createdAt,value
2019-05-07T00:04:42.869Z,10.55
2019-05-07T00:07:13.637Z,11.75
2019-05-07T00:09:44.494Z,12.93
2019-05-07T00:12:15.368Z,10.70
2019-05-07T00:14:58.188Z,10.80
2019-05-07T00:17:18.658Z,11.05
2019-05-07T00:19:49.479Z,12.28
2019-05-07T00:22:22.038Z,11.38
2019-05-07T00:24:52.521Z,12.78
2019-05-07T00:27:23.366Z,12.05
2019-05-07T00:29:54.224Z,12.55
2019-05-07T00:32:25.154Z,12.53
2019-05-07T00:34:57.833Z,12.88
2019-05-07T00:37:32.139Z,13.18
2019-05-07T00:40:03.489Z,12.43
2019-05-07T00:42:35.713Z,13.95
2019-05-07T00:45:16.932Z,12.82
2019-05-07T00:47:42.621Z,12.40
2019-05-07T00:50:14.800Z,12.53
2019-05-07T00:52:45.604Z,12.95
2019-05-07T00:55:16.568Z,13.75
2019-05-07T00:57:47.231Z,13.28
2019-05-07T01:00:18.375Z,14.15
2019-05-07T01:02:52.548Z,12.90
2019-05-07T01:05:23.595Z,12.07
2019-05-07T01:07:54.342Z,12.88
2019-05-07T01:10:25.276Z,11.55
2019-05-07T01:12:59.040Z,11.38
2019-05-07T01:15:31.569Z,11.60
2019-05-07T01:18:02.714Z,12.28
2019-05-07T01:20:33.075Z,12.47
2019-05-07T01:23:05.191Z,12.07
2019-05-07T01:25:35.999Z,13.83
2019-05-07T01:28:07.094Z,13.03
2019-05-07T01:30:38.046Z,12.63
2019-05-07T01:33:12.257Z,12.10
2019-05-07T01:35:42.725Z,13.48
2019-05-07T01:38:14.127Z,13.15
2019-05-07T01:40:45.193Z,13.65
2019-05-07T01:43:16.127Z,14.55
2019-05-07T01:45:49.728Z,14.98
2019-05-07T01:48:19.539Z,13.78
2019-05-07T01:50:52.362Z,14.18
2019-05-07T01:53:22.829Z,13.80
2019-05-07T01:55:53.728Z,14.23
2019-05-07T01:58:24.605Z,13.93
2019-05-07T02:00:55.558Z,14.38
2019-05-07T02:03:27.532Z,16.10
2019-05-07T02:05:59.588Z,15.43
2019-05-07T02:08:32.868Z,15.18
2019-05-07T02:11:05.194Z,13.78
2019-05-07T02:13:35.974Z,14.35
2019-05-07T02:16:06.889Z,16.12
2019-05-07T02:18:37.900Z,16.00
2019-05-07T02:21:08.740Z,16.82
2019-05-07T02:23:42.410Z,17.35
2019-05-07T02:26:13.334Z,17.17
2019-05-07T02:28:44.246Z,14.58
2019-05-07T02:31:15.367Z,16.23
2019-05-07T02:33:46.408Z,17.67
2019-05-07T02:36:17.396Z,17.12
2019-05-07T02:38:49.568Z,15.68
2019-05-07T02:41:23.330Z,15.13
2019-05-07T02:43:54.495Z,14.43
2019-05-07T02:46:31.618Z,19.62
2019-05-07T02:49:02.877Z,17.57
2019-05-07T02:51:36.142Z,15.08
2019-05-07T02:54:08.288Z,15.88
2019-05-07T02:56:39.117Z,16.95
2019-05-07T02:59:13.327Z,16.35
2019-05-07T03:01:43.257Z,15.25
2019-05-07T03:04:15.543Z,18.32
2019-05-07T03:06:46.822Z,17.90
2019-05-07T03:09:17.887Z,17.00
2019-05-07T03:11:48.675Z,15.88
2019-05-07T03:14:19.375Z,17.37
2019-05-07T03:16:53.277Z,16.55
2019-05-07T03:19:24.269Z,22.48
2019-05-07T03:21:55.202Z,24.47
2019-05-07T03:24:28.132Z,18.55
2019-05-07T03:27:02.903Z,21.05
2019-05-07T03:29:33.446Z,17.52
2019-05-07T03:32:06.484Z,21.60
2019-05-07T03:34:39.103Z,18.42
2019-05-07T03:37:13.474Z,17.15
2019-05-07T03:39:43.856Z,18.27
2019-05-07T03:42:14.696Z,17.98
2019-05-07T03:44:46.628Z,21.07
2019-05-07T03:47:18.798Z,20.68
2019-05-07T03:49:50.090Z,24.30
2019-05-07T03:52:24.122Z,18.52
2019-05-07T03:54:53.976Z,20.12
2019-05-07T03:57:25.336Z,24.47
2019-05-07T03:59:56.227Z,22.85
2019-05-07T04:02:27.080Z,18.90
2019-05-07T04:04:57.939Z,17.73
2019-05-07T04:07:29.008Z,20.27
2019-05-07T04:09:59.923Z,17.20
2019-05-07T04:12:30.752Z,15.85
2019-05-07T04:15:03.505Z,17.40
2019-05-07T04:17:34.295Z,17.62
2019-05-07T04:20:05.234Z,16.85
2019-05-07T04:22:36.149Z,20.82
2019-05-07T04:25:09.761Z,17.50
2019-05-07T04:27:46.286Z,19.73
2019-05-07T04:30:14.455Z,17.90
2019-05-07T04:32:46.689Z,17.95
2019-05-07T04:35:19.045Z,16.87
2019-05-07T04:37:49.988Z,16.55
2019-05-07T04:40:24.029Z,19.20
2019-05-07T04:42:54.013Z,17.77
2019-05-07T04:45:25.142Z,18.85
2019-05-07T04:47:56.026Z,21.48
2019-05-07T04:50:42.005Z,17.12
2019-05-07T04:53:02.857Z,18.10
2019-05-07T04:55:36.727Z,19.57
2019-05-07T04:58:09.033Z,20.60
2019-05-07T05:00:42.817Z,17.12
2019-05-07T05:03:13.248Z,18.07
2019-05-07T05:05:44.187Z,18.12
2019-05-07T05:08:15.120Z,19.92
2019-05-07T05:10:46.043Z,19.48
2019-05-07T05:13:18.051Z,17.32
2019-05-07T05:15:48.986Z,17.02
2019-05-07T05:18:21.766Z,16.70
2019-05-07T05:20:53.480Z,16.87
2019-05-07T05:23:25.709Z,17.45
2019-05-07T05:25:56.670Z,16.80
2019-05-07T05:28:27.545Z,16.55
2019-05-07T05:30:59.700Z,16.35
2019-05-07T05:33:32.248Z,17.00
2019-05-07T05:36:03.044Z,17.82
2019-05-07T05:38:35.099Z,17.23
2019-05-07T05:41:06.100Z,17.82
2019-05-07T05:43:38.449Z,17.73
2019-05-07T05:46:12.163Z,17.85
2019-05-07T05:48:43.099Z,17.17
2019-05-07T05:51:15.256Z,17.00
2019-05-07T05:53:47.265Z,17.62
2019-05-07T05:56:19.462Z,17.65
2019-05-07T05:58:52.529Z,17.85
2019-05-07T06:01:24.086Z,17.57
2019-05-07T06:03:56.275Z,17.75
2019-05-07T06:06:28.376Z,18.12
2019-05-07T06:09:01.942Z,17.62
2019-05-07T06:11:34.174Z,18.35
2019-05-07T06:14:06.366Z,17.23
2019-05-07T06:16:39.388Z,17.70
2019-05-07T06:19:12.961Z,30.65
2019-05-07T06:21:45.260Z,16.93
2019-05-07T06:24:17.425Z,17.32
2019-05-07T06:26:48.831Z,18.27
2019-05-07T06:29:20.247Z,18.62
2019-05-07T06:31:53.073Z,17.50
2019-05-07T06:34:23.966Z,18.20
2019-05-07T06:36:54.812Z,16.82
2019-05-07T06:39:27.107Z,20.25
2019-05-07T06:42:01.939Z,16.40
2019-05-07T06:44:32.080Z,16.45
2019-05-07T06:47:03.044Z,17.35
2019-05-07T06:49:33.837Z,17.60
2019-05-07T06:52:04.739Z,17.20
2019-05-07T06:54:35.647Z,16.60
2019-05-07T06:57:06.703Z,17.42
2019-05-07T06:59:39.031Z,10.18
2019-05-07T07:02:12.779Z,3.27
2019-05-07T07:04:44.641Z,3.45
2019-05-07T07:07:26.283Z,3.12
2019-05-07T07:09:51.945Z,3.60
2019-05-07T07:12:26.142Z,3.70
2019-05-07T07:14:58.115Z,4.55
2019-05-07T07:17:29.325Z,4.60
2019-05-07T07:20:01.866Z,6.20
2019-05-07T07:22:32.481Z,6.90
2019-05-07T07:25:06.520Z,6.92
2019-05-07T07:27:35.843Z,7.20
2019-05-07T07:30:12.753Z,7.87
2019-05-07T07:32:44.118Z,9.30
2019-05-07T07:35:15.735Z,8.78
2019-05-07T07:37:46.555Z,8.33
2019-05-07T07:40:22.280Z,7.92
2019-05-07T07:42:52.538Z,10.05
2019-05-07T07:45:23.461Z,9.28
2019-05-07T07:47:54.220Z,11.00
2019-05-07T07:50:25.066Z,14.70
2019-05-07T07:52:55.934Z,15.03
2019-05-07T07:55:27.981Z,15.08
2019-05-07T07:58:02.528Z,13.80
2019-05-07T08:00:33.774Z,12.88
2019-05-07T08:03:05.842Z,12.23
2019-05-07T08:05:36.800Z,11.90
2019-05-07T08:08:07.828Z,11.40
2019-05-07T08:10:39.060Z,11.97
2019-05-07T08:13:12.147Z,12.40
2019-05-07T08:15:43.015Z,12.80
2019-05-07T08:18:14.026Z,12.98
2019-05-07T08:20:44.960Z,12.50
2019-05-07T08:23:16.475Z,13.58
2019-05-07T08:25:48.496Z,13.65
2019-05-07T08:28:22.817Z,14.18
2019-05-07T08:30:54.379Z,14.70
2019-05-07T08:33:26.575Z,13.55
2019-05-07T08:35:59.027Z,12.75
2019-05-07T08:38:32.755Z,13.03
2019-05-07T08:41:03.625Z,16.10
2019-05-07T08:43:34.830Z,16.37
2019-05-07T08:46:07.211Z,14.45
2019-05-07T08:48:39.474Z,12.15
2019-05-07T08:51:11.883Z,13.40
2019-05-07T08:53:42.990Z,13.43
2019-05-07T08:56:14.015Z,14.07
2019-05-07T08:58:45.293Z,15.15
2019-05-07T09:01:16.044Z,14.75
2019-05-07T09:03:47.144Z,13.25
2019-05-07T09:06:19.484Z,12.10
2019-05-07T09:08:52.640Z,11.33
2019-05-07T09:11:23.742Z,9.85
2019-05-07T09:13:54.579Z,8.00
2019-05-07T09:16:25.576Z,8.70
2019-05-07T09:18:57.090Z,8.65
2019-05-07T09:21:28.019Z,10.03
2019-05-07T09:23:59.024Z,8.68
2019-05-07T09:26:32.352Z,8.10
2019-05-07T09:29:04.630Z,8.08
2019-05-07T09:31:37.529Z,8.70
2019-05-07T09:34:08.482Z,10.95
2019-05-07T09:36:42.460Z,10.63
2019-05-07T09:39:13.095Z,7.90
2019-05-07T09:41:44.873Z,7.78
2019-05-07T09:44:15.662Z,7.78
2019-05-07T09:46:47.946Z,8.40
2019-05-07T09:49:19.030Z,7.50
2019-05-07T09:51:51.808Z,7.42
2019-05-07T09:54:23.076Z,8.38
2019-05-07T09:56:54.022Z,7.62
2019-05-07T09:59:25.105Z,8.70
2019-05-07T10:01:56.248Z,9.23
2019-05-07T10:04:27.050Z,7.85
2019-05-07T10:06:58.112Z,7.65
2019-05-07T10:09:28.981Z,12.03
2019-05-07T10:12:02.769Z,12.73
2019-05-07T10:14:33.917Z,11.90
2019-05-07T10:17:05.997Z,12.25
2019-05-07T10:19:36.901Z,12.07
2019-05-07T10:22:07.569Z,11.85
2019-05-07T10:24:38.381Z,11.97
2019-05-07T10:27:12.474Z,11.48
2019-05-07T10:29:42.878Z,12.28
2019-05-07T10:32:13.772Z,10.93
2019-05-07T10:34:45.621Z,11.43
2019-05-07T10:37:16.711Z,13.05
2019-05-07T10:39:47.355Z,11.88
2019-05-07T10:42:18.512Z,12.40
2019-05-07T10:44:52.417Z,11.78
2019-05-07T10:47:24.177Z,12.40
2019-05-07T10:49:59.018Z,12.25
2019-05-07T10:52:28.446Z,11.80
2019-05-07T10:54:59.994Z,12.53
2019-05-07T10:57:32.774Z,11.85
2019-05-07T11:00:03.291Z,12.33
2019-05-07T11:02:34.489Z,13.32
2019-05-07T11:05:06.826Z,11.63
2019-05-07T11:07:37.781Z,12.15
2019-05-07T11:10:12.523Z,12.00
2019-05-07T11:12:43.566Z,13.32
2019-05-07T11:15:17.185Z,12.90
2019-05-07T11:17:49.197Z,12.47
2019-05-07T11:20:22.599Z,12.65
2019-05-07T11:22:53.433Z,12.53
2019-05-07T11:25:24.636Z,13.48
2019-05-07T11:27:55.460Z,13.30
2019-05-07T11:30:26.370Z,13.20
2019-05-07T11:32:57.296Z,13.98
2019-05-07T11:35:28.252Z,15.00
2019-05-07T11:37:59.101Z,14.73
2019-05-07T11:40:32.162Z,14.73
2019-05-07T11:43:03.647Z,14.60
2019-05-07T11:45:36.338Z,13.43
2019-05-07T11:48:07.638Z,14.00
2019-05-07T11:50:39.740Z,13.93
2019-05-07T11:53:11.772Z,13.78
2019-05-07T11:55:42.660Z,12.80
2019-05-07T11:58:13.576Z,13.35
2019-05-07T12:00:46.184Z,14.98
2019-05-07T12:03:17.285Z,13.20
2019-05-07T12:05:47.979Z,13.38
2019-05-07T12:08:18.836Z,14.15
2019-05-07T12:10:51.673Z,14.23
2019-05-07T12:13:21.956Z,14.58
2019-05-07T12:15:52.817Z,13.60
2019-05-07T12:18:23.775Z,15.28
2019-05-07T12:20:54.747Z,15.38
2019-05-07T12:23:25.779Z,14.83
2019-05-07T12:25:56.743Z,14.00
2019-05-07T12:28:27.545Z,13.93
2019-05-07T12:30:59.598Z,14.10
2019-05-07T12:33:32.346Z,13.50
2019-05-07T12:36:02.493Z,14.33
2019-05-07T12:38:33.395Z,13.32
2019-05-07T12:41:05.589Z,14.13
2019-05-07T12:43:36.513Z,14.15
2019-05-07T12:46:07.363Z,13.32
2019-05-07T12:48:38.179Z,13.45
2019-05-07T12:51:08.884Z,14.15
2019-05-07T12:53:42.438Z,13.80
2019-05-07T12:56:13.438Z,13.70
2019-05-07T12:58:44.145Z,13.35
2019-05-07T13:01:16.189Z,14.03
2019-05-07T13:03:48.477Z,13.43
2019-05-07T13:06:19.339Z,12.93
2019-05-07T13:08:52.216Z,12.53
2019-05-07T13:11:25.661Z,12.90
2019-05-07T13:13:56.511Z,13.28
2019-05-07T13:16:27.242Z,13.22
2019-05-07T13:18:58.098Z,13.10
2019-05-07T13:21:28.816Z,12.75
2019-05-07T13:23:59.528Z,12.90
2019-05-07T13:26:32.028Z,13.25
2019-05-07T13:29:03.259Z,13.53
2019-05-07T13:31:36.045Z,14.75
2019-05-07T13:34:07.138Z,14.23
2019-05-07T13:36:39.530Z,13.85
2019-05-07T13:39:11.019Z,13.75
2019-05-07T13:41:41.606Z,13.83
2019-05-07T13:44:14.486Z,13.80
2019-05-07T13:46:46.779Z,14.85
2019-05-07T13:49:18.303Z,14.98
2019-05-07T13:52:00.997Z,14.47
2019-05-07T13:54:21.821Z,14.38
2019-05-07T13:56:52.684Z,14.35
2019-05-07T13:59:23.734Z,14.28
2019-05-07T14:01:55.899Z,14.95
2019-05-07T14:04:27.311Z,16.70
2019-05-07T14:07:01.785Z,16.75
2019-05-07T14:09:32.624Z,17.12
2019-05-07T14:12:03.736Z,20.57
2019-05-07T14:14:34.943Z,20.57
2019-05-07T14:17:05.974Z,20.60
2019-05-07T14:19:37.028Z,19.50
2019-05-07T14:22:15.527Z,18.87
2019-05-07T14:24:42.078Z,18.07
2019-05-07T14:27:12.217Z,16.52
2019-05-07T14:29:43.126Z,16.70
2019-05-07T14:32:15.336Z,17.57
2019-05-07T14:34:47.290Z,17.82
2019-05-07T14:37:19.309Z,16.97
2019-05-07T14:39:51.805Z,18.35
2019-05-07T14:42:23.508Z,18.25
2019-05-07T14:44:54.373Z,18.90
2019-05-07T14:47:25.484Z,18.05
2019-05-07T14:49:56.248Z,17.40
2019-05-07T14:52:32.576Z,17.95
2019-05-07T14:54:59.232Z,16.97
2019-05-07T14:57:30.089Z,16.70
2019-05-07T15:00:03.079Z,18.05
2019-05-07T15:02:33.180Z,17.92
2019-05-07T15:05:04.012Z,18.05
2019-05-07T15:07:35.856Z,18.00
2019-05-07T15:10:08.616Z,17.77
2019-05-07T15:12:39.589Z,17.50
2019-05-07T15:15:12.624Z,17.07
2019-05-07T15:17:44.698Z,17.57
2019-05-07T15:20:16.148Z,17.75
2019-05-07T15:22:49.926Z,18.52
2019-05-07T15:25:22.532Z,19.70
2019-05-07T15:27:53.311Z,19.32
2019-05-07T15:30:25.546Z,19.92
2019-05-07T15:32:56.430Z,21.48
2019-05-07T15:35:27.292Z,21.80
2019-05-07T15:37:58.168Z,20.62
2019-05-07T15:40:28.959Z,23.47
2019-05-07T15:43:02.022Z,23.65
2019-05-07T15:45:31.947Z,24.77
2019-05-07T15:48:02.541Z,25.05
2019-05-07T15:50:33.451Z,26.40
2019-05-07T15:53:05.645Z,29.02
2019-05-07T15:55:36.633Z,30.55
2019-05-07T15:58:07.571Z,30.23
2019-05-07T16:00:39.346Z,27.42
2019-05-07T16:03:11.905Z,26.93
2019-05-07T16:05:42.527Z,24.52
2019-05-07T16:08:14.863Z,24.43
2019-05-07T16:10:45.624Z,23.35
2019-05-07T16:13:17.782Z,23.50
2019-05-07T16:15:48.770Z,24.07
2019-05-07T16:18:19.299Z,24.67
2019-05-07T16:20:52.156Z,24.35
2019-05-07T16:23:22.366Z,23.92
2019-05-07T16:25:53.159Z,24.00
2019-05-07T16:28:24.110Z,23.83
2019-05-07T16:30:55.096Z,22.70
2019-05-07T16:33:25.945Z,23.90
2019-05-07T16:35:56.835Z,23.70
2019-05-07T16:38:27.479Z,24.67
2019-05-07T16:40:58.265Z,23.98
2019-05-07T16:43:29.182Z,24.37
2019-05-07T16:45:59.965Z,23.83
2019-05-07T16:48:32.527Z,24.75
2019-05-07T16:51:02.959Z,26.05
2019-05-07T16:53:35.330Z,24.72
2019-05-07T16:56:05.955Z,26.12
2019-05-07T16:58:38.635Z,25.77
2019-05-07T17:01:10.832Z,23.60
2019-05-07T17:03:43.252Z,24.15
2019-05-07T17:06:14.022Z,25.05
2019-05-07T17:08:46.083Z,23.85
2019-05-07T17:11:16.911Z,24.25
2019-05-07T17:13:48.530Z,24.77
2019-05-07T17:16:19.542Z,26.02
2019-05-07T17:18:51.887Z,25.35
2019-05-07T17:21:22.764Z,25.30
2019-05-07T17:23:53.609Z,25.52
2019-05-07T17:26:24.365Z,25.20
2019-05-07T17:28:55.221Z,25.55
2019-05-07T17:31:26.030Z,26.52
2019-05-07T17:33:56.799Z,26.35
2019-05-07T17:36:27.541Z,26.23
2019-05-07T17:38:58.364Z,25.20
2019-05-07T17:41:29.013Z,26.75
2019-05-07T17:44:02.439Z,25.08
2019-05-07T17:46:32.711Z,26.17
2019-05-07T17:49:04.097Z,25.52
2019-05-07T17:51:36.208Z,26.20
2019-05-07T17:54:07.212Z,26.77
2019-05-07T17:56:38.240Z,25.97
2019-05-07T17:59:09.254Z,25.40
2019-05-07T18:01:41.937Z,25.17
2019-05-07T18:04:12.844Z,27.82
2019-05-07T18:06:43.535Z,25.92
2019-05-07T18:09:14.494Z,29.32
2019-05-07T18:11:45.228Z,27.73
2019-05-07T18:14:16.121Z,27.02
2019-05-07T18:16:48.187Z,25.82
2019-05-07T18:19:19.365Z,27.37
2019-05-07T18:21:52.343Z,25.25
2019-05-07T18:24:22.436Z,28.83
2019-05-07T18:26:53.350Z,28.15
2019-05-07T18:29:24.179Z,31.90
2019-05-07T18:31:57.115Z,31.75
2019-05-07T18:34:27.976Z,30.62
2019-05-07T18:36:58.919Z,29.85
2019-05-07T18:39:32.172Z,30.23
2019-05-07T18:42:02.801Z,30.23
2019-05-07T18:44:33.784Z,30.55
2019-05-07T18:47:04.759Z,29.20
2019-05-07T18:49:35.664Z,29.57
2019-05-07T18:52:06.603Z,29.25
2019-05-07T18:54:37.456Z,27.62
2019-05-07T18:57:08.256Z,28.80
2019-05-07T18:59:39.179Z,27.07
2019-05-07T19:02:09.921Z,28.67
2019-05-07T19:04:42.255Z,29.18
2019-05-07T19:07:13.441Z,28.52
2019-05-07T19:09:44.341Z,27.80
2019-05-07T19:12:16.592Z,27.15
2019-05-07T19:14:47.403Z,27.22
2019-05-07T19:17:18.463Z,26.82
2019-05-07T19:19:49.315Z,25.70
2019-05-07T19:22:22.087Z,24.55
2019-05-07T19:24:52.715Z,24.55
2019-05-07T19:27:23.593Z,25.40
2019-05-07T19:29:54.464Z,24.23
2019-05-07T19:32:25.614Z,24.52
2019-05-07T19:34:56.483Z,23.22
2019-05-07T19:37:27.188Z,23.65
2019-05-07T19:39:58.137Z,23.30
2019-05-07T19:42:29.088Z,22.87
2019-05-07T19:45:02.489Z,23.18
2019-05-07T19:47:32.715Z,22.65
2019-05-07T19:50:03.651Z,22.85
2019-05-07T19:52:34.425Z,23.92
2019-05-07T19:55:07.715Z,24.90
2019-05-07T19:57:39.792Z,25.00
2019-05-07T20:00:12.126Z,23.85
2019-05-07T20:02:44.418Z,23.47
2019-05-07T20:05:15.440Z,22.60
2019-05-07T20:07:46.692Z,23.67
2019-05-07T20:10:18.958Z,22.20
2019-05-07T20:12:52.065Z,22.22
2019-05-07T20:15:22.387Z,21.75
2019-05-07T20:17:53.207Z,20.72
2019-05-07T20:20:24.040Z,19.82
2019-05-07T20:22:54.902Z,20.02
2019-05-07T20:25:26.116Z,18.65
2019-05-07T20:27:56.983Z,20.05
2019-05-07T20:30:27.842Z,18.50
2019-05-07T20:32:58.796Z,18.60
2019-05-07T20:35:29.611Z,18.67
2019-05-07T20:38:02.748Z,19.00
2019-05-07T20:40:32.720Z,16.77
2019-05-07T20:43:03.386Z,17.07
2019-05-07T20:45:34.139Z,16.82
2019-05-07T20:48:05.128Z,16.02
2019-05-07T20:50:36.075Z,15.13
2019-05-07T20:53:07.032Z,15.93
2019-05-07T20:55:39.217Z,15.55
2019-05-07T20:58:12.674Z,15.68
2019-05-07T21:00:43.364Z,14.70
2019-05-07T21:03:15.689Z,15.38
2019-05-07T21:05:46.574Z,15.25
2019-05-07T21:08:17.297Z,14.18
2019-05-07T21:10:48.268Z,13.45
2019-05-07T21:13:28.405Z,12.85
2019-05-07T21:15:52.626Z,12.78
2019-05-07T21:18:23.747Z,11.80
2019-05-07T21:20:54.701Z,12.45
2019-05-07T21:23:25.622Z,12.73
2019-05-07T21:25:56.513Z,11.30
2019-05-07T21:28:27.354Z,12.55
2019-05-07T21:30:58.055Z,12.30
2019-05-07T21:33:28.799Z,12.05
2019-05-07T21:35:59.668Z,12.65
2019-05-07T21:38:32.732Z,12.65
2019-05-07T21:41:02.747Z,12.10
2019-05-07T21:43:33.515Z,11.90
2019-05-07T21:46:04.424Z,11.88
2019-05-07T21:48:35.398Z,13.25
2019-05-07T21:51:06.220Z,12.30
2019-05-07T21:53:38.360Z,12.20
2019-05-07T21:56:12.234Z,12.63
2019-05-07T21:58:43.768Z,12.45
2019-05-07T22:01:16.214Z,12.68
2019-05-07T22:03:48.336Z,13.00
2019-05-07T22:06:19.378Z,12.70
2019-05-07T22:08:52.253Z,11.90
2019-05-07T22:11:22.937Z,11.60
2019-05-07T22:13:54.831Z,12.50
2019-05-07T22:16:26.036Z,12.35
2019-05-07T22:18:56.993Z,11.95
2019-05-07T22:21:27.945Z,11.40
2019-05-07T22:23:58.979Z,12.40
2019-05-07T22:26:32.016Z,11.43
